createdAt,value
2022-10-08T13:50:07.827Z,16.65
2022-10-08T13:53:11.619Z,12.85
2022-10-08T13:56:13.570Z,17.30
2022-10-08T13:59:15.557Z,14.35
2022-10-08T14:02:17.592Z,20.63
2022-10-08T14:05:21.633Z,14.70
2022-10-08T14:08:25.502Z,13.40
2022-10-08T14:11:27.411Z,14.23
2022-10-08T14:14:29.428Z,13.07
2022-10-08T14:17:31.326Z,13.80
2022-10-08T14:20:35.609Z,13.57
2022-10-08T14:23:37.486Z,14.60
2022-10-08T14:26:39.382Z,19.85
2022-10-08T14:29:41.298Z,18.15
2022-10-08T14:32:43.545Z,16.17
2022-10-08T14:35:50.583Z,11.88
2022-10-08T14:38:52.519Z,17.23
2022-10-08T14:41:54.462Z,15.07
2022-10-08T14:44:56.604Z,18.25
2022-10-08T14:47:58.449Z,13.50
2022-10-08T14:51:01.740Z,17.42
2022-10-08T14:54:04.050Z,18.10
2022-10-08T14:57:05.968Z,17.75
2022-10-08T15:00:08.862Z,20.77
2022-10-08T15:03:10.710Z,15.05
2022-10-08T15:06:13.939Z,17.23
2022-10-08T15:09:15.901Z,14.10
2022-10-08T15:12:17.773Z,16.83
2022-10-08T15:15:19.643Z,15.35
2022-10-08T15:18:21.478Z,22.13
2022-10-08T15:21:24.730Z,19.05
2022-10-08T15:24:26.574Z,17.20
2022-10-08T15:27:28.440Z,18.35
2022-10-08T15:30:30.412Z,20.10
2022-10-08T15:33:36.993Z,17.75
2022-10-08T15:36:40.232Z,17.67
2022-10-08T15:39:42.202Z,18.80
2022-10-08T15:42:44.265Z,21.85
2022-10-08T15:45:46.297Z,16.42
2022-10-08T15:48:53.066Z,17.85
2022-10-08T15:51:56.381Z,21.85
2022-10-08T15:54:58.249Z,20.05
2022-10-08T15:58:00.113Z,25.35
2022-10-08T16:01:06.356Z,24.45
2022-10-08T16:04:12.000Z,26.63
2022-10-08T16:07:15.288Z,26.42
2022-10-08T16:10:17.303Z,30.90
2022-10-08T16:13:19.192Z,22.88
2022-10-08T16:16:22.023Z,24.77
2022-10-08T16:19:25.616Z,28.48
2022-10-08T16:22:28.883Z,25.23
2022-10-08T16:25:30.739Z,27.40
2022-10-08T16:28:34.202Z,29.58
2022-10-08T16:31:37.750Z,29.90
2022-10-08T16:34:44.097Z,37.22
2022-10-08T16:37:48.204Z,30.58
2022-10-08T16:40:50.068Z,26.85
2022-10-08T16:43:53.717Z,33.67
2022-10-08T16:46:55.519Z,33.08
2022-10-08T16:49:57.357Z,28.27
2022-10-08T16:53:00.600Z,32.83
2022-10-08T16:56:02.950Z,26.58
2022-10-08T16:59:06.683Z,24.58
2022-10-08T17:02:10.182Z,28.77
2022-10-08T17:05:12.135Z,28.13
2022-10-08T17:08:15.343Z,28.33
2022-10-08T17:11:18.137Z,28.15
2022-10-08T17:14:20.509Z,29.83
2022-10-08T17:17:22.581Z,26.92
2022-10-08T17:20:24.516Z,28.50
2022-10-08T17:23:30.904Z,27.02
2022-10-08T17:26:33.333Z,30.40
2022-10-08T17:29:35.244Z,29.65
2022-10-08T17:32:37.322Z,26.98
2022-10-08T17:35:39.212Z,30.88
2022-10-08T17:38:44.079Z,28.58
2022-10-08T17:41:46.206Z,29.25
2022-10-08T17:44:48.178Z,28.30
2022-10-08T17:47:50.185Z,26.77
2022-10-08T17:50:52.523Z,28.92
2022-10-08T17:53:58.090Z,27.75
2022-10-08T17:57:00.413Z,25.83
2022-10-08T18:00:02.401Z,29.05
2022-10-08T18:03:06.583Z,28.52
2022-10-08T18:06:10.471Z,30.25
2022-10-08T18:09:16.257Z,31.67
2022-10-08T18:12:18.950Z,24.20
2022-10-08T18:15:21.324Z,26.50
2022-10-08T18:18:23.492Z,26.27
2022-10-08T18:21:26.445Z,24.50
2022-10-08T18:24:30.545Z,25.85
2022-10-08T18:27:33.097Z,22.73
2022-10-08T18:30:36.864Z,31.67
2022-10-08T18:33:41.048Z,26.55
2022-10-08T18:36:45.398Z,24.30
2022-10-08T18:39:48.922Z,27.88
2022-10-08T18:42:51.440Z,27.58
2022-10-08T18:45:53.373Z,27.52
2022-10-08T18:48:56.422Z,24.83
2022-10-08T18:51:59.874Z,22.60
2022-10-08T18:55:04.987Z,22.67
2022-10-08T18:58:07.126Z,24.60
2022-10-08T19:01:17.856Z,21.30
2022-10-08T19:04:21.972Z,20.80
2022-10-08T19:07:24.210Z,20.65
2022-10-08T19:10:27.977Z,20.58
2022-10-08T19:13:30.120Z,18.90
2022-10-08T19:16:34.833Z,19.27
2022-10-08T19:19:36.722Z,17.00
2022-10-08T19:22:39.417Z,16.67
2022-10-08T19:25:42.878Z,14.65
2022-10-08T19:28:46.727Z,15.02
2022-10-08T19:31:49.955Z,13.15
2022-10-08T19:34:54.116Z,16.60
2022-10-08T19:37:56.700Z,18.00
2022-10-08T19:41:01.209Z,18.27
2022-10-08T19:44:05.033Z,17.13
2022-10-08T19:47:12.104Z,16.98
2022-10-08T19:50:17.762Z,14.13
2022-10-08T19:53:21.258Z,15.32
2022-10-08T19:56:24.899Z,20.23
2022-10-08T19:59:27.411Z,17.33
2022-10-08T20:02:29.554Z,13.98
2022-10-08T20:05:31.709Z,17.73
2022-10-08T20:08:34.111Z,13.38
2022-10-08T20:11:39.657Z,18.52
2022-10-08T20:14:41.669Z,15.07
2022-10-08T20:17:43.571Z,16.02
2022-10-08T20:20:45.460Z,17.77
2022-10-08T20:23:47.485Z,17.90
2022-10-08T20:26:50.758Z,14.55
2022-10-08T20:29:52.693Z,13.75
2022-10-08T20:32:54.611Z,13.85
2022-10-08T20:35:56.485Z,12.10
2022-10-08T20:38:58.539Z,13.77
2022-10-08T20:42:01.806Z,14.15
2022-10-08T20:45:04.151Z,13.55
2022-10-08T20:48:06.009Z,14.27
2022-10-08T20:51:10.764Z,15.57
2022-10-08T20:54:14.106Z,18.13
2022-10-08T20:57:17.393Z,14.85
2022-10-08T21:00:19.433Z,12.05
2022-10-08T21:03:21.303Z,17.38
2022-10-08T21:06:25.148Z,13.68
2022-10-08T21:09:26.997Z,13.23
2022-10-08T21:12:30.252Z,14.23
2022-10-08T21:15:32.231Z,15.48
2022-10-08T21:18:35.245Z,14.88
2022-10-08T21:21:37.247Z,20.25
2022-10-08T21:24:39.097Z,19.40
2022-10-08T21:27:42.351Z,18.90
2022-10-08T21:30:44.214Z,21.88
2022-10-08T21:33:47.802Z,19.20
2022-10-08T21:36:49.770Z,21.85
2022-10-08T21:39:51.715Z,19.95
2022-10-08T21:42:55.037Z,23.98
2022-10-08T21:45:57.940Z,24.50
2022-10-08T21:49:02.171Z,20.10
2022-10-08T21:52:04.076Z,21.90
2022-10-08T21:55:06.944Z,23.52
2022-10-08T21:58:10.202Z,21.77
2022-10-08T22:01:20.873Z,22.60
2022-10-08T22:04:24.470Z,20.48
2022-10-08T22:07:26.350Z,20.40
2022-10-08T22:10:28.278Z,17.45
2022-10-08T22:13:31.870Z,18.73
2022-10-08T22:16:34.074Z,18.02
2022-10-08T22:19:36.037Z,16.15
2022-10-08T22:22:37.929Z,17.40
2022-10-08T22:25:39.843Z,21.95
2022-10-08T22:28:43.927Z,19.88
2022-10-08T22:31:46.170Z,17.33
2022-10-08T22:34:48.081Z,15.63
2022-10-08T22:37:49.954Z,17.70
2022-10-08T22:40:51.816Z,15.27
2022-10-08T22:43:55.579Z,18.92
2022-10-08T22:46:57.461Z,20.77
2022-10-08T22:49:59.341Z,18.42
2022-10-08T22:53:01.423Z,18.45
2022-10-08T22:56:04.946Z,20.95
2022-10-08T22:59:08.219Z,16.58
2022-10-08T23:02:10.119Z,21.52
2022-10-08T23:05:12.040Z,15.43
2022-10-08T23:08:13.892Z,16.75
2022-10-08T23:11:16.351Z,16.38
2022-10-08T23:14:19.594Z,15.70
2022-10-08T23:17:21.465Z,15.23
2022-10-08T23:20:23.280Z,12.45
2022-10-08T23:23:25.153Z,14.85
2022-10-08T23:26:27.789Z,14.20
2022-10-08T23:29:31.046Z,13.57
2022-10-08T23:32:32.911Z,13.07
2022-10-08T23:35:34.744Z,15.10
2022-10-08T23:38:37.132Z,13.35
2022-10-08T23:41:39.187Z,12.27
2022-10-08T23:44:42.435Z,11.82
2022-10-08T23:47:44.305Z,12.10
2022-10-08T23:50:49.585Z,10.57
2022-10-08T23:53:52.464Z,9.98
2022-10-08T23:56:54.302Z,10.43
2022-10-08T23:59:57.546Z,11.10
